Time;durP1;ratioP1;P1;durP2;ratioP2;P2;SDS_P1;SDS_P2;PMS_P1;PMS_P2;Temp;Humidity;BMP_temperature;BMP_pressure;BME280_temperature;BME280_humidity;BME280_pressure;Samples;Min_cycle;Max_cycle;Signal;HPM_P1;HPM_P2
2023/04/28 00:00:01;;;;;;;10.10;7.07;;;;;;;12.78;56.45;96122.28;4990011;28;20507;-74
2023/04/28 00:02:26;;;;;;;12.10;6.67;;;;;;;12.74;57.02;96112.84;4991029;28;20168;-74
2023/04/28 00:04:53;;;;;;;6.63;5.70;;;;;;;12.76;56.55;96105.72;4991297;28;20427;-74
2023/04/28 00:07:18;;;;;;;9.30;7.67;;;;;;;12.54;57.54;96090.28;5005626;28;20176;-74
2023/04/28 00:09:44;;;;;;;9.20;5.80;;;;;;;12.62;57.34;96088.06;4991146;28;20416;-74
2023/04/28 00:12:10;;;;;;;8.63;6.93;;;;;;;12.63;56.87;96084.47;4991138;28;20691;-74
2023/04/28 00:14:35;;;;;;;6.70;5.90;;;;;;;12.62;57.52;96093.34;4990890;28;20185;-75
2023/04/28 00:17:02;;;;;;;6.80;5.93;;;;;;;12.46;58.26;96084.59;4990654;28;20418;-75
2023/04/28 00:19:27;;;;;;;11.87;6.50;;;;;;;12.54;58.00;96087.63;4990988;28;20647;-74
2023/04/28 00:21:53;;;;;;;14.60;6.77;;;;;;;12.47;58.56;96079.25;4991050;28;20445;-74
2023/04/28 00:24:19;;;;;;;11.17;6.10;;;;;;;12.38;59.05;96079.78;4991355;28;20204;-74
2023/04/28 00:26:44;;;;;;;9.07;6.50;;;;;;;12.60;59.00;96078.56;4994416;28;20655;-74
2023/04/28 00:29:10;;;;;;;9.00;6.43;;;;;;;12.62;58.22;96074.06;4992328;28;20215;-73
2023/04/28 00:31:35;;;;;;;7.27;5.83;;;;;;;12.26;58.95;96075.22;4990685;28;20189;-73
2023/04/28 00:34:01;;;;;;;14.07;6.63;;;;;;;12.33;59.28;96070.44;4992076;28;20200;-73
2023/04/28 00:36:30;;;;;;;17.10;6.80;;;;;;;12.42;59.00;96070.75;4991777;28;20181;-73
2023/04/28 00:38:56;;;;;;;6.90;6.00;;;;;;;12.47;59.23;96079.25;4991824;28;20200;-74
2023/04/28 00:41:21;;;;;;;15.00;5.57;;;;;;;12.53;58.59;96083.31;4990398;28;20464;-73
2023/04/28 00:43:48;;;;;;;6.53;5.43;;;;;;;12.55;58.99;96088.50;4990322;28;20201;-72
2023/04/28 00:46:26;;;;;;;7.33;5.73;;;;;;;12.60;58.71;96089.09;4991708;28;20227;-72
2023/04/28 00:48:52;;;;;;;6.80;5.87;;;;;;;12.64;58.89;96080.09;4992287;28;20547;-72
2023/04/28 00:51:17;;;;;;;8.23;6.33;;;;;;;12.56;59.02;96077.03;4998185;28;21244;-73
2023/04/28 00:53:43;;;;;;;8.70;5.80;;;;;;;12.59;58.74;96068.94;5004761;28;20229;-74
2023/04/28 00:56:09;;;;;;;7.03;5.33;;;;;;;12.63;58.21;96067.84;5006739;28;20181;-73
2023/04/28 00:58:35;;;;;;;8.23;6.73;;;;;;;12.56;58.38;96048.06;5004308;28;20153;-73
2023/04/28 01:01:02;;;;;;;34.87;7.90;;;;;;;12.43;58.90;96056.69;5003938;28;20419;-72
2023/04/28 01:03:28;;;;;;;10.00;7.57;;;;;;;12.55;58.73;96059.56;5005086;28;20200;-72
2023/04/28 01:05:54;;;;;;;9.90;6.60;;;;;;;12.44;59.44;96063.63;5007130;28;20413;-75
2023/04/28 01:08:26;;;;;;;8.87;6.77;;;;;;;12.49;59.12;96063.38;5000840;28;20523;-73
2023/04/28 01:10:52;;;;;;;14.73;7.80;;;;;;;12.51;59.27;96032.56;4991903;28;20868;-72
2023/04/28 01:13:18;;;;;;;15.27;7.03;;;;;;;12.38;58.94;96027.16;4990804;28;20527;-73
2023/04/28 01:15:43;;;;;;;12.53;7.10;;;;;;;11.89;61.53;96034.31;4990940;28;20535;-74
2023/04/28 01:18:09;;;;;;;13.50;8.87;;;;;;;11.76;61.71;96041.97;4991225;28;20642;-74
2023/04/28 01:20:34;;;;;;;13.63;8.03;;;;;;;12.00;60.17;96043.31;4991707;28;20200;-73
2023/04/28 01:22:59;;;;;;;9.23;8.23;;;;;;;12.21;59.44;96043.03;4990573;28;20678;-74
2023/04/28 01:25:25;;;;;;;12.10;8.33;;;;;;;12.27;59.74;96040.06;4994116;28;20172;-74
2023/04/28 01:27:51;;;;;;;9.50;7.60;;;;;;;12.25;59.51;96031.41;4994228;28;20279;-73
2023/04/28 01:30:17;;;;;;;9.10;8.07;;;;;;;12.41;58.82;96037.50;4992778;28;20168;-73
2023/04/28 01:32:42;;;;;;;9.37;8.47;;;;;;;12.11;59.25;96039.22;4989681;28;20494;-72
2023/04/28 01:35:08;;;;;;;15.13;8.50;;;;;;;12.13;59.11;96030.31;4990098;28;20254;-72
2023/04/28 01:37:33;;;;;;;17.47;8.93;;;;;;;12.15;59.90;96040.75;4989654;28;20173;-74
2023/04/28 01:39:59;;;;;;;18.60;10.30;;;;;;;11.99;60.58;96041.59;4989818;28;20204;-74
2023/04/28 01:42:24;;;;;;;14.90;8.40;;;;;;;11.90;60.67;96036.84;4989927;28;20179;-74
2023/04/28 01:44:49;;;;;;;15.33;8.73;;;;;;;11.85;60.74;96036.22;4990037;28;20176;-74
2023/04/28 01:47:15;;;;;;;10.10;9.07;;;;;;;11.88;60.47;96040.47;4989576;28;20192;-74
2023/04/28 01:49:40;;;;;;;9.17;8.27;;;;;;;12.02;59.94;96036.19;4990221;28;20685;-73
2023/04/28 01:52:06;;;;;;;8.27;7.47;;;;;;;12.07;60.07;96023.63;4990319;28;20575;-74
2023/04/28 01:54:31;;;;;;;8.67;7.87;;;;;;;12.19;60.00;96029.09;4990178;28;20189;-73
2023/04/28 01:56:56;;;;;;;10.23;7.40;;;;;;;12.08;59.59;96020.03;4989922;28;20243;-73
2023/04/28 01:59:22;;;;;;;9.03;7.20;;;;;;;12.15;60.09;96017.91;4990202;28;20507;-73
2023/04/28 02:01:48;;;;;;;9.87;7.73;;;;;;;12.19;59.92;96023.84;4993084;28;20264;-73
2023/04/28 02:04:13;;;;;;;9.30;7.47;;;;;;;12.24;59.56;96017.41;4993215;28;20208;-74
2023/04/28 02:06:39;;;;;;;9.83;8.80;;;;;;;12.13;59.77;96009.25;4993987;28;20411;-73
2023/04/28 02:09:04;;;;;;;10.83;8.53;;;;;;;12.00;60.55;96011.75;4992134;28;20200;-72
2023/04/28 02:11:30;;;;;;;8.80;7.00;;;;;;;12.20;60.36;96010.63;4991107;28;20265;-73
2023/04/28 02:13:55;;;;;;;20.73;9.40;;;;;;;12.22;59.98;96005.28;4990175;28;20257;-73
2023/04/28 02:16:20;;;;;;;36.33;11.30;;;;;;;12.34;59.21;96022.16;4989446;28;20162;-73
2023/04/28 02:18:46;;;;;;;31.73;9.67;;;;;;;12.23;59.87;96013.06;4991973;28;20179;-73
2023/04/28 02:21:12;;;;;;;8.87;7.70;;;;;;;12.25;59.66;96011.19;4990187;28;20271;-75
2023/04/28 02:23:38;;;;;;;9.60;8.60;;;;;;;12.41;58.50;96020.88;4989779;28;20653;-72
2023/04/28 02:26:04;;;;;;;26.70;8.90;;;;;;;12.42;58.74;96028.66;4989834;28;20188;-73
2023/04/28 02:28:30;;;;;;;14.43;8.73;;;;;;;12.30;59.26;96008.31;4990022;28;20456;-72
2023/04/28 02:31:06;;;;;;;13.60;8.70;;;;;;;12.30;59.81;96010.94;4988586;28;20442;-72
2023/04/28 02:33:32;;;;;;;27.00;8.80;;;;;;;12.24;59.64;96009.50;4989797;28;20196;-72
2023/04/28 02:36:01;;;;;;;11.30;8.17;;;;;;;12.08;60.31;96009.53;4989016;28;20407;-73
2023/04/28 02:38:27;;;;;;;12.00;9.00;;;;;;;12.23;59.37;96006.97;4988039;28;20177;-72
2023/04/28 02:41:03;;;;;;;15.83;7.87;;;;;;;12.34;59.20;96012.47;4989653;28;21223;-73
2023/04/28 02:43:30;;;;;;;15.70;8.50;;;;;;;12.22;59.64;96005.28;4989843;28;20200;-72
2023/04/28 02:45:56;;;;;;;16.33;9.83;;;;;;;12.24;59.40;96014.78;4990159;28;20901;-72
2023/04/28 02:48:22;;;;;;;12.70;7.97;;;;;;;12.10;59.91;96011.25;4990220;28;20455;-73
2023/04/28 02:50:47;;;;;;;9.07;8.13;;;;;;;12.10;60.25;96017.34;4990158;28;20443;-73
2023/04/28 02:53:13;;;;;;;9.33;8.20;;;;;;;12.21;60.24;96012.31;4991943;28;20432;-74
2023/04/28 02:55:38;;;;;;;9.93;7.80;;;;;;;12.19;60.23;95993.16;4989172;28;20180;-72
2023/04/28 02:58:04;;;;;;;19.87;10.43;;;;;;;12.17;59.61;95997.66;4989520;28;20583;-73
2023/04/28 03:00:29;;;;;;;14.03;9.13;;;;;;;12.24;59.36;95985.00;5003651;28;20173;-74
2023/04/28 03:02:55;;;;;;;21.17;9.63;;;;;;;12.14;59.21;95975.91;5003911;28;20200;-73
2023/04/28 03:05:20;;;;;;;25.27;10.50;;;;;;;11.95;60.81;95974.34;4989161;28;20169;-73
2023/04/28 03:07:46;;;;;;;12.53;9.70;;;;;;;11.72;61.49;95982.63;4988476;28;20935;-73
2023/04/28 03:10:12;;;;;;;11.10;8.27;;;;;;;11.54;61.88;95981.84;4987736;28;20968;-74
2023/04/28 03:12:37;;;;;;;10.70;9.43;;;;;;;11.48;62.48;95985.66;4987335;28;20180;-73
2023/04/28 03:15:03;;;;;;;24.37;10.67;;;;;;;11.78;61.96;95992.78;4988883;28;20506;-73
2023/04/28 03:17:29;;;;;;;28.97;11.63;;;;;;;11.90;61.04;96000.03;4989347;28;20227;-74
2023/04/28 03:19:54;;;;;;;34.13;11.53;;;;;;;12.02;61.20;95995.88;4992608;28;20177;-73
2023/04/28 03:22:20;;;;;;;16.97;9.73;;;;;;;12.09;60.78;95999.84;4992431;28;20257;-72
2023/04/28 03:24:45;;;;;;;11.03;9.07;;;;;;;12.06;60.87;95994.75;4992670;28;20192;-74
2023/04/28 03:27:11;;;;;;;13.13;10.50;;;;;;;11.96;61.34;95993.59;4992585;28;20180;-73
2023/04/28 03:29:36;;;;;;;32.33;12.43;;;;;;;11.93;61.52;95993.75;4991972;28;20192;-73
2023/04/28 03:32:02;;;;;;;17.40;10.07;;;;;;;11.33;63.15;95995.19;4992508;28;20227;-72
2023/04/28 03:34:27;;;;;;;10.73;9.60;;;;;;;11.19;63.74;95993.28;4992556;28;20188;-74
2023/04/28 03:36:53;;;;;;;76.40;15.47;;;;;;;11.47;62.40;95994.47;5007333;28;20544;-74
2023/04/28 03:39:19;;;;;;;24.53;9.77;;;;;;;11.68;62.03;95979.31;4992408;28;20169;-73
2023/04/28 03:41:44;;;;;;;19.50;11.10;;;;;;;11.47;62.83;95980.47;4991184;28;20169;-73
2023/04/28 03:44:09;;;;;;;34.53;11.90;;;;;;;11.36;62.88;95987.19;4991228;28;20197;-72
2023/04/28 03:46:35;;;;;;;35.43;11.83;;;;;;;11.67;61.54;95990.78;4992104;28;20253;-72
2023/04/28 03:49:03;;;;;;;25.33;13.03;;;;;;;11.79;61.09;95990.09;4992420;28;20201;-73
2023/04/28 03:51:29;;;;;;;29.50;11.17;;;;;;;11.85;60.33;95988.88;4992709;28;20256;-73
2023/04/28 03:53:54;;;;;;;19.60;11.70;;;;;;;11.85;60.84;95997.63;4992058;28;20523;-74
2023/04/28 03:56:20;;;;;;;15.53;10.60;;;;;;;11.59;61.16;95995.56;4992554;28;20260;-73
2023/04/28 03:58:46;;;;;;;26.63;11.50;;;;;;;11.51;61.83;95992.53;4992198;28;20173;-73
2023/04/28 04:01:11;;;;;;;13.40;10.67;;;;;;;11.30;62.12;96000.63;4992044;28;20177;-72
2023/04/28 04:03:36;;;;;;;13.60;11.30;;;;;;;11.34;62.00;95985.53;4991564;28;20209;-74
2023/04/28 04:06:02;;;;;;;16.63;10.50;;;;;;;11.04;63.07;95994.13;4991843;28;20169;-72
2023/04/28 04:08:28;;;;;;;11.10;10.00;;;;;;;11.00;63.25;95995.19;4991702;28;20200;-73
2023/04/28 04:10:54;;;;;;;17.30;12.03;;;;;;;11.12;63.25;96007.69;4991879;28;20169;-74
2023/04/28 04:13:20;;;;;;;14.43;12.20;;;;;;;11.23;62.85;96005.34;4991629;28;20436;-73
2023/04/28 04:15:46;;;;;;;15.40;11.67;;;;;;;11.48;62.70;95996.19;4991533;28;20412;-71
2023/04/28 04:18:12;;;;;;;23.97;12.30;;;;;;;11.32;63.35;95990.88;4991826;28;20890;-73
2023/04/28 04:20:38;;;;;;;18.17;12.20;;;;;;;11.35;62.61;95992.50;4990099;28;20188;-73
2023/04/28 04:23:03;;;;;;;22.67;12.47;;;;;;;11.43;62.49;95999.06;4991696;28;20204;-76
2023/04/28 04:25:29;;;;;;;24.80;12.53;;;;;;;11.41;62.68;95997.44;4992296;28;20801;-73
2023/04/28 04:27:55;;;;;;;20.17;12.03;;;;;;;11.45;63.30;95988.44;4991080;28;20537;-72
2023/04/28 04:30:20;;;;;;;17.80;11.73;;;;;;;11.48;62.57;95990.91;4990286;28;20416;-73
2023/04/28 04:32:46;;;;;;;23.60;12.00;;;;;;;11.68;62.51;95989.81;4991111;28;20199;-73
2023/04/28 04:35:11;;;;;;;26.80;13.07;;;;;;;11.76;62.70;95994.66;4990228;28;20239;-74
2023/04/28 04:37:37;;;;;;;21.30;12.40;;;;;;;11.66;63.45;95992.53;4985459;28;20181;-72
2023/04/28 04:40:03;;;;;;;15.20;12.00;;;;;;;11.65;62.74;95990.84;4988589;28;20227;-73
2023/04/28 04:42:28;;;;;;;16.03;9.73;;;;;;;11.81;62.75;95989.97;4990744;28;20180;-72
2023/04/28 04:44:54;;;;;;;15.30;12.33;;;;;;;11.58;62.85;95992.09;4989452;28;20491;-72
2023/04/28 04:47:20;;;;;;;14.67;11.70;;;;;;;11.47;63.99;95988.38;4989846;28;20231;-73
2023/04/28 04:49:46;;;;;;;12.80;11.50;;;;;;;11.52;64.25;95994.22;4989089;28;20180;-73
2023/04/28 04:52:12;;;;;;;16.53;11.67;;;;;;;11.75;63.78;95990.34;4988206;28;20196;-72
2023/04/28 04:54:37;;;;;;;12.63;11.43;;;;;;;11.73;63.45;95986.94;4988228;28;20530;-72
2023/04/28 04:57:03;;;;;;;13.07;11.77;;;;;;;11.53;64.78;95991.50;4988318;28;20248;-72
2023/04/28 04:59:28;;;;;;;18.90;11.97;;;;;;;11.43;65.62;95991.16;4988043;28;20662;-73
2023/04/28 05:01:54;;;;;;;21.80;12.50;;;;;;;11.31;66.49;95990.97;5004933;28;20267;-72
2023/04/28 05:04:19;;;;;;;19.53;11.90;;;;;;;11.48;66.07;96005.81;4989502;28;20279;-74
2023/04/28 05:06:45;;;;;;;32.33;14.93;;;;;;;11.42;66.51;95993.88;4984519;28;20610;-71
2023/04/28 05:09:10;;;;;;;26.17;12.60;;;;;;;11.28;67.51;95994.59;4985946;28;20212;-74
2023/04/28 05:11:36;;;;;;;22.97;11.20;;;;;;;11.38;67.73;95987.06;4989474;28;20231;-72
2023/04/28 05:14:01;;;;;;;17.53;12.77;;;;;;;11.69;67.03;95991.50;4985726;28;20303;-71
2023/04/28 05:16:27;;;;;;;14.43;11.83;;;;;;;11.76;66.11;95984.97;4984957;28;20184;-70
2023/04/28 05:18:52;;;;;;;28.80;13.97;;;;;;;11.71;66.06;95988.81;4985766;28;20170;-73
2023/04/28 05:21:18;;;;;;;19.80;12.70;;;;;;;11.83;66.40;95993.38;4982328;28;20512;-71
2023/04/28 05:23:43;;;;;;;15.67;11.70;;;;;;;11.75;66.30;95983.28;4983794;28;20305;-73
2023/04/28 05:26:09;;;;;;;15.13;13.50;;;;;;;11.64;67.76;95977.78;4979142;28;20231;-72
2023/04/28 05:28:35;;;;;;;25.90;12.57;;;;;;;11.76;67.74;95977.09;4983954;28;20197;-71
2023/04/28 05:31:00;;;;;;;15.73;12.03;;;;;;;11.72;68.17;95974.75;4986429;28;20187;-72
2023/04/28 05:33:26;;;;;;;17.13;11.60;;;;;;;11.78;68.09;95977.03;4982275;28;20193;-72
2023/04/28 05:35:51;;;;;;;13.27;11.87;;;;;;;11.66;68.56;95973.28;4985241;28;20284;-71
2023/04/28 05:38:17;;;;;;;26.73;12.40;;;;;;;11.70;68.32;95966.94;4988007;28;20176;-70
2023/04/28 05:40:42;;;;;;;16.73;13.07;;;;;;;11.62;68.81;95972.63;4985003;28;20753;-71
2023/04/28 05:43:08;;;;;;;21.30;12.47;;;;;;;11.73;68.73;95977.28;4982889;28;20201;-72
2023/04/28 05:45:33;;;;;;;15.53;11.70;;;;;;;11.71;69.07;95966.00;4985041;28;20181;-71
2023/04/28 05:47:59;;;;;;;12.43;10.90;;;;;;;11.66;69.72;95958.34;4983444;28;20204;-72
2023/04/28 05:50:25;;;;;;;13.80;11.20;;;;;;;11.77;69.55;95970.91;4980094;28;20208;-73
2023/04/28 05:52:50;;;;;;;15.27;10.83;;;;;;;11.71;69.57;95959.88;4985299;28;20240;-71
2023/04/28 05:55:16;;;;;;;15.80;11.30;;;;;;;11.74;69.67;95965.84;4988833;28;20189;-70
2023/04/28 05:57:41;;;;;;;25.57;11.87;;;;;;;11.64;69.80;95968.09;4992025;28;20446;-71
2023/04/28 06:00:07;;;;;;;16.93;11.27;;;;;;;11.75;70.62;95970.16;4991351;28;20205;-72
2023/04/28 06:02:32;;;;;;;12.53;10.10;;;;;;;11.69;70.95;95974.91;4993998;28;20197;-72
2023/04/28 06:04:58;;;;;;;11.10;9.63;;;;;;;11.79;70.48;95962.97;4987156;28;20208;-71
2023/04/28 06:07:23;;;;;;;15.70;11.33;;;;;;;11.83;70.34;95969.72;4985755;28;20192;-72
2023/04/28 06:09:49;;;;;;;24.87;11.17;;;;;;;11.85;70.75;95962.59;4984515;28;20192;-72
2023/04/28 06:12:14;;;;;;;14.53;11.00;;;;;;;11.90;70.53;95968.47;4984631;28;20656;-70
2023/04/28 06:14:40;;;;;;;17.07;11.70;;;;;;;11.88;71.41;95974.75;4978951;28;20201;-71
2023/04/28 06:17:05;;;;;;;17.63;11.13;;;;;;;11.92;71.17;95978.91;4983226;28;20230;-70
2023/04/28 06:19:31;;;;;;;22.50;12.00;;;;;;;11.67;72.77;95977.63;4998933;28;20240;-73
2023/04/28 06:21:56;;;;;;;26.33;12.30;;;;;;;11.80;72.56;95983.88;4978009;28;20204;-73
2023/04/28 06:24:21;;;;;;;16.27;10.73;;;;;;;11.91;72.10;95974.59;4990701;28;20888;-71
2023/04/28 06:26:47;;;;;;;58.67;13.73;;;;;;;11.90;72.21;95970.25;4988301;28;20331;-71
2023/04/28 06:29:12;;;;;;;17.13;11.63;;;;;;;11.68;72.97;95965.31;4985298;28;20220;-72
2023/04/28 06:31:38;;;;;;;49.30;15.60;;;;;;;11.70;73.25;95960.84;4988926;28;21106;-73
2023/04/28 06:34:03;;;;;;;32.67;13.30;;;;;;;11.82;73.13;95960.16;4989374;28;20199;-70
2023/04/28 06:36:29;;;;;;;21.63;12.57;;;;;;;11.78;73.72;95958.63;4986662;28;20169;-72
2023/04/28 06:38:54;;;;;;;18.20;11.57;;;;;;;11.85;74.14;95966.06;4984130;28;20173;-73
2023/04/28 06:41:20;;;;;;;34.80;12.23;;;;;;;11.97;73.78;95969.81;4980800;28;20681;-71
2023/04/28 06:43:45;;;;;;;46.87;13.60;;;;;;;12.10;72.93;95967.38;4985705;28;20211;-71
2023/04/28 06:46:11;;;;;;;32.10;12.17;;;;;;;12.00;74.44;95968.81;4986582;28;20234;-70
2023/04/28 06:48:36;;;;;;;32.73;11.33;;;;;;;11.81;74.24;95950.56;4982269;28;20268;-73
2023/04/28 06:51:02;;;;;;;16.37;9.80;;;;;;;11.58;75.25;95952.69;4983188;28;20188;-73
2023/04/28 06:53:28;;;;;;;28.07;11.10;;;;;;;11.75;75.02;95951.75;4982368;28;20197;-69
2023/04/28 06:55:55;;;;;;;25.60;10.37;;;;;;;11.84;74.90;95948.59;4981680;28;20941;-73
2023/04/28 06:58:20;;;;;;;16.43;8.80;;;;;;;11.98;74.15;95949.66;4983603;28;20211;-71
2023/04/28 07:00:46;;;;;;;23.17;9.90;;;;;;;12.07;74.12;95949.09;4978576;28;20431;-70
2023/04/28 07:03:11;;;;;;;25.53;10.47;;;;;;;12.04;74.48;95941.41;4981983;28;20220;-71
2023/04/28 07:05:37;;;;;;;13.20;9.80;;;;;;;12.04;74.67;95939.63;4984057;28;20184;-71
2023/04/28 07:08:03;;;;;;;12.80;9.80;;;;;;;12.16;74.13;95934.59;4980933;28;20307;-72
2023/04/28 07:10:28;;;;;;;19.93;10.03;;;;;;;12.01;74.81;95938.94;4980753;28;20995;-72
2023/04/28 07:12:53;;;;;;;22.37;10.60;;;;;;;12.00;75.00;95938.13;4986370;28;20201;-72
2023/04/28 07:15:19;;;;;;;15.10;10.90;;;;;;;12.05;75.50;95933.44;4985780;28;20367;-71
2023/04/28 07:17:44;;;;;;;12.60;9.70;;;;;;;12.05;75.69;95930.81;4985676;28;20188;-71
2023/04/28 07:20:10;;;;;;;10.70;9.37;;;;;;;12.02;75.12;95927.50;4979206;28;20181;-72
2023/04/28 07:22:37;;;;;;;13.43;8.57;;;;;;;12.04;75.68;95923.00;4982137;28;20247;-71
2023/04/28 07:25:03;;;;;;;12.77;9.60;;;;;;;12.10;75.59;95938.44;4976090;28;20519;-69
2023/04/28 07:27:28;;;;;;;13.23;9.33;;;;;;;12.18;75.71;95932.72;4976614;28;20978;-72
2023/04/28 07:29:54;;;;;;;18.03;9.60;;;;;;;12.23;75.40;95923.63;4982121;28;20451;-71
2023/04/28 07:32:21;;;;;;;11.67;8.73;;;;;;;12.22;75.66;95931.63;4981664;28;20177;-70
2023/04/28 07:34:46;;;;;;;19.37;11.50;;;;;;;12.17;75.34;95925.78;4979358;28;20197;-70
2023/04/28 07:37:12;;;;;;;18.57;10.47;;;;;;;12.26;75.63;95926.09;4978107;28;20534;-71
2023/04/28 07:39:39;;;;;;;15.50;10.53;;;;;;;12.31;75.63;95917.06;4985066;28;20181;-70
2023/04/28 07:42:04;;;;;;;25.73;10.50;;;;;;;12.23;76.12;95913.09;4979638;28;20180;-72
2023/04/28 07:44:31;;;;;;;20.90;11.17;;;;;;;12.37;75.25;95919.34;4983204;28;20471;-72
2023/04/28 07:46:58;;;;;;;16.83;9.10;;;;;;;12.40;76.21;95914.75;4977988;28;20192;-70
2023/04/28 07:49:23;;;;;;;16.43;8.70;;;;;;;12.44;76.01;95908.34;4981505;28;20467;-72
2023/04/28 07:51:51;;;;;;;8.80;7.83;;;;;;;12.48;75.31;95909.03;4977820;28;20867;-73
2023/04/28 07:54:16;;;;;;;10.27;6.97;;;;;;;12.49;75.58;95903.66;4979032;28;20209;-72
2023/04/28 07:56:42;;;;;;;11.30;7.67;;;;;;;12.49;75.54;95903.66;4984216;28;20466;-72
2023/04/28 07:59:07;;;;;;;7.53;5.97;;;;;;;12.59;75.38;95901.34;4980919;28;20799;-70
2023/04/28 08:01:33;;;;;;;14.10;6.63;;;;;;;12.58;75.71;95902.28;4983775;28;20192;-72
2023/04/28 08:03:58;;;;;;;9.13;6.30;;;;;;;12.66;75.62;95907.06;4986127;28;20208;-71
2023/04/28 08:06:24;;;;;;;10.73;6.67;;;;;;;12.75;75.11;95903.91;4989955;28;20192;-71
2023/04/28 08:08:49;;;;;;;13.63;6.80;;;;;;;12.76;76.04;95904.75;4980515;28;20255;-72
2023/04/28 08:11:15;;;;;;;9.07;5.47;;;;;;;12.79;75.47;95900.16;4977387;28;20194;-71
2023/04/28 08:13:40;;;;;;;14.20;5.90;;;;;;;12.83;76.46;95896.38;4984706;28;20254;-73
2023/04/28 08:16:06;;;;;;;14.00;6.40;;;;;;;12.85;76.43;95896.28;4986727;28;21224;-72
2023/04/28 08:18:31;;;;;;;11.43;5.60;;;;;;;12.88;76.32;95896.94;4987416;28;20193;-73
2023/04/28 08:20:57;;;;;;;7.20;4.50;;;;;;;12.88;76.23;95890.84;4986018;28;20193;-72
2023/04/28 08:23:22;;;;;;;20.47;5.80;;;;;;;12.88;76.30;95894.31;4982214;28;20209;-72
2023/04/28 08:25:49;;;;;;;5.30;3.60;;;;;;;12.89;76.21;95890.72;4982803;28;20355;-70
2023/04/28 08:28:14;;;;;;;6.70;3.67;;;;;;;12.90;76.57;95892.44;4988350;28;20220;-73
2023/04/28 08:30:40;;;;;;;7.53;4.00;;;;;;;12.92;76.36;95894.97;4986646;28;20427;-71
2023/04/28 08:33:05;;;;;;;5.50;3.30;;;;;;;12.95;75.68;95897.44;4987289;28;20301;-71
2023/04/28 08:35:31;;;;;;;7.20;3.67;;;;;;;12.96;76.54;95888.56;4978420;28;20542;-72
2023/04/28 08:37:57;;;;;;;10.77;4.60;;;;;;;12.95;76.39;95899.22;4982349;28;20301;-72
2023/04/28 08:40:23;;;;;;;9.77;3.90;;;;;;;12.90;76.63;95894.25;4982087;28;20536;-71
2023/04/28 08:42:48;;;;;;;7.97;3.87;;;;;;;12.93;76.74;95905.41;4986712;28;20987;-71
2023/04/28 08:45:14;;;;;;;7.90;3.33;;;;;;;13.00;76.99;95900.63;4988345;28;20435;-72
2023/04/28 08:47:44;;;;;;;6.77;3.40;;;;;;;12.95;76.57;95899.22;4986295;28;20208;-72
2023/04/28 08:50:11;;;;;;;3.40;2.87;;;;;;;12.95;77.02;95901.84;4984330;28;20509;-73
2023/04/28 08:52:38;;;;;;;6.17;3.53;;;;;;;12.90;76.87;95896.88;4981697;28;21017;-72
2023/04/28 08:55:08;;;;;;;7.70;4.00;;;;;;;12.89;77.14;95900.44;4988822;28;20552;-73
2023/04/28 08:57:37;;;;;;;7.70;3.77;;;;;;;12.91;77.77;95898.56;4999137;28;20448;-71
2023/04/28 09:00:03;;;;;;;10.47;4.90;;;;;;;12.96;77.25;95900.91;4992811;28;20440;-74
2023/04/28 09:02:28;;;;;;;4.57;4.00;;;;;;;12.97;77.94;95902.59;4995149;28;20874;-73
2023/04/28 09:04:54;;;;;;;19.63;5.50;;;;;;;12.98;76.85;95893.75;5000993;28;20191;-71
2023/04/28 09:07:19;;;;;;;6.57;3.80;;;;;;;12.89;77.48;95910.97;4999571;28;20247;-73
2023/04/28 09:09:44;;;;;;;7.13;3.87;;;;;;;12.89;78.12;95911.81;4986760;28;20208;-73
2023/04/28 09:12:10;;;;;;;6.63;4.37;;;;;;;13.01;77.97;95907.56;4986292;28;20192;-74
2023/04/28 09:14:37;;;;;;;3.90;3.47;;;;;;;13.05;78.34;95910.88;4987900;28;20236;-73
2023/04/28 09:17:10;;;;;;;5.63;4.90;;;;;;;13.01;77.89;95906.72;4986697;28;20188;-73
2023/04/28 09:19:37;;;;;;;3.87;3.57;;;;;;;13.14;78.39;95902.41;4979874;28;20428;-73
2023/04/28 09:22:04;;;;;;;4.30;3.90;;;;;;;13.16;78.42;95912.84;4976221;28;20433;-73
2023/04/28 09:24:31;;;;;;;6.77;4.03;;;;;;;13.20;78.75;95904.66;4984766;28;20546;-73
2023/04/28 09:27:03;;;;;;;7.80;4.27;;;;;;;13.18;78.78;95903.03;4984307;28;20427;-74
2023/04/28 09:29:30;;;;;;;7.43;4.60;;;;;;;13.23;79.07;95906.25;4983251;28;20470;-72
2023/04/28 09:32:16;;;;;;;9.57;5.03;;;;;;;13.22;78.84;95904.56;4984074;28;20465;-74
2023/04/28 09:34:46;;;;;;;13.37;5.47;;;;;;;13.25;78.70;95909.63;4981466;28;20533;-72
2023/04/28 09:37:19;;;;;;;13.03;5.80;;;;;;;13.23;79.04;95903.59;4986238;28;20532;-73
2023/04/28 09:39:46;;;;;;;33.17;7.10;;;;;;;13.34;78.40;95915.19;4985915;28;20435;-72
2023/04/28 09:42:32;;;;;;;8.53;5.30;;;;;;;13.39;78.72;95908.81;4986253;28;20444;-73
2023/04/28 09:44:57;;;;;;;6.33;5.00;;;;;;;13.49;78.47;95912.56;4984019;28;20432;-74
2023/04/28 09:47:24;;;;;;;10.00;5.40;;;;;;;13.51;79.07;95910.66;4984924;28;20817;-73
2023/04/28 09:49:57;;;;;;;8.17;5.20;;;;;;;13.59;78.67;95915.47;4978676;28;20230;-73
2023/04/28 09:52:23;;;;;;;20.60;4.70;;;;;;;13.65;77.79;95918.53;4984197;28;20444;-71
2023/04/28 09:54:50;;;;;;;8.67;6.00;;;;;;;13.68;78.44;95918.34;4982011;28;20555;-72
2023/04/28 09:57:20;;;;;;;10.10;4.83;;;;;;;13.78;77.17;95921.25;4981428;28;20933;-73
2023/04/28 09:59:53;;;;;;;9.70;4.43;;;;;;;13.66;78.04;95920.25;4984349;28;20770;-74
2023/04/28 10:02:20;;;;;;;13.20;4.87;;;;;;;13.69;78.86;95919.19;4979886;28;20475;-72
2023/04/28 10:04:47;;;;;;;5.13;4.47;;;;;;;13.66;78.11;95919.41;4982849;28;20471;-71
2023/04/28 10:07:15;;;;;;;6.10;3.63;;;;;;;13.69;78.38;95919.19;4982914;28;20443;-73
2023/04/28 10:09:46;;;;;;;12.13;5.70;;;;;;;13.65;78.13;95918.53;4984301;28;20499;-73
2023/04/28 10:12:23;;;;;;;19.47;4.80;;;;;;;13.66;78.30;95917.59;4985391;28;20486;-73
2023/04/28 10:14:53;;;;;;;6.20;4.13;;;;;;;13.72;78.18;95919.00;4980953;28;20468;-74
2023/04/28 10:17:26;;;;;;;3.60;2.90;;;;;;;13.68;77.89;95930.69;4974542;28;20458;-71
2023/04/28 10:19:52;;;;;;;10.97;4.10;;;;;;;13.79;78.06;95919.44;4984001;28;20542;-75
2023/04/28 10:22:42;;;;;;;2.90;2.47;;;;;;;13.91;76.89;95918.66;4985239;28;20479;-72
2023/04/28 10:25:27;;;;;;;8.73;2.63;;;;;;;13.97;76.81;95916.47;4982889;28;20439;-74
2023/04/28 10:27:53;;;;;;;2.57;2.00;;;;;;;13.93;76.70;95920.25;4983266;28;20467;-72
2023/04/28 10:30:22;;;;;;;2.70;2.50;;;;;;;13.93;77.56;95927.31;4980699;28;20440;-72
2023/04/28 10:33:14;;;;;;;5.00;2.53;;;;;;;13.98;76.78;95912.91;4979764;28;20957;-74
2023/04/28 10:35:42;;;;;;;8.33;2.20;;;;;;;13.96;77.41;95917.44;4978467;28;20805;-73
2023/04/28 10:38:21;;;;;;;7.93;3.37;;;;;;;14.07;76.63;95913.22;4985413;28;20988;-73
2023/04/28 10:40:51;;;;;;;14.93;3.40;;;;;;;14.16;77.06;95917.91;4982046;28;20557;-71
2023/04/28 10:43:32;;;;;;;63.57;9.93;;;;;;;14.29;76.24;95920.56;4986855;28;20460;-72
2023/04/28 10:46:00;;;;;;;16.97;3.30;;;;;;;14.38;75.93;95910.25;4980406;28;20498;-74
2023/04/28 10:48:25;;;;;;;11.40;3.17;;;;;;;14.40;75.74;95918.91;4978426;28;20916;-72
2023/04/28 10:51:03;;;;;;;8.13;2.60;;;;;;;14.53;76.11;95905.75;4986161;28;20448;-73
2023/04/28 10:56:25;;;;;;;6.40;1.77;;;;;;;15.03;74.82;95908.53;4985447;28;20906;-74
2023/04/28 10:58:52;;;;;;;18.30;3.20;;;;;;;15.28;73.66;95906.81;4981134;28;20424;-72
2023/04/28 11:01:23;;;;;;;3.00;2.03;;;;;;;15.43;73.96;95903.94;4981301;28;20443;-73
2023/04/28 11:04:01;;;;;;;2.70;2.30;;;;;;;15.58;73.30;95907.28;4982658;28;20471;-74
2023/04/28 11:06:33;;;;;;;10.17;2.40;;;;;;;15.55;73.16;95904.88;4982470;28;20451;-71
2023/04/28 11:09:20;;;;;;;8.37;2.43;;;;;;;15.57;72.85;95910.88;4984866;28;20464;-72
2023/04/28 11:12:06;;;;;;;2.97;1.73;;;;;;;15.58;72.12;95915.22;4985173;28;20479;-73
2023/04/28 11:14:34;;;;;;;2.37;2.00;;;;;;;15.61;72.11;95911.50;4978147;28;20555;-71
2023/04/28 11:17:02;;;;;;;2.30;1.90;;;;;;;15.55;72.05;95907.50;4979367;28;20474;-72
2023/04/28 11:19:30;;;;;;;2.63;2.17;;;;;;;15.66;71.78;95912.00;4988230;28;20436;-72
2023/04/28 11:21:58;;;;;;;2.63;2.43;;;;;;;15.60;71.98;95904.53;4988951;28;20872;-74
2023/04/28 11:24:24;;;;;;;2.80;2.00;;;;;;;15.73;71.58;95910.66;4988973;28;20579;-72